Allentown, GA

6:19 AM EDT on October 24, 2014 (GMT -0400)
Cochran | Change Station
CLOSE
Current Station
Personal Weather Station
Location: Cochran, GA
Elevation: 0 ft
Nearby Weather Stations

Elev 0 ft 32.36 °N, 83.38 °W | Updated 1 minute ago

Partly Cloudy
Partly Cloudy
46.6 °F
Feels Like 47 °F
N
0.0
Wind Variable Wind from SE

Today
High -- | Low -- °F
--% Chance of Precip.
Yesterday
High -- | Low -- °F
Precip. -- in
7:43 AM 6:49 PM
New Moon, 0% visible
Pressure 30.05 in
Visibility 10.0 miles
Clouds Clear
Windchill 47 °F
Dew Point 46 °F
Humidity 99%
Rainfall 0.00 in
Snow Depth Not available.
UV 0 out of 12
Pollen 2.00 out of 12
Air Quality Not available.
Flu Activity Sporadic
METAR KWRB 240958Z AUTO 34004KT 10SM CLR 09/08 A3004 RMK AO2 SLP174 T00880080

More Conditions Fewer Conditions

Pressure 30.05 in
Visibility 10.0 miles
Clouds Clear
Windchill 47 °F
Dew Point 46 °F
Humidity 99%
Rainfall 0.00 in
Snow Depth Not available.
UV 0 out of 12
Pollen 2.00 out of 12
Air Quality Not available.
Flu Activity Sporadic
METAR KWRB 240958Z AUTO 34004KT 10SM CLR 09/08 A3004 RMK AO2 SLP174 T00880080

More Conditions Fewer Conditions

10-Day Weather Forecast

Almanac

Astronomy

Oct. 24, 2014 Rise Set
Actual Time 7:43 AM EDT 6:49 PM EDT
Civil Twilight 7:18 AM EDT 7:14 PM EDT
Nautical Twilight 6:49 AM EDT 7:43 PM EDT
Astronomical Twilight 6:21 AM EDT 8:12 PM EDT
Moon 8:20 AM EDT 7:31 PM EDT
Length of Visible Light 11h 56m
Length of Day
11h 06m
Tomorrow will be 1m 51s shorter.
New Moon, 0% of the Moon is Illuminated
Today
New Moon
Oct 30
First Quarter
Nov 6
Full
Nov 14
Last Quarter
Nov 22
New

Today's Extremes

State Highs State Lows

Community

WunderPhotos

Upload Photos

1,764,513 photos uploaded!

WunderBlogs® & News

Nearby

Snow Depth

Station Depth Elevation
No new snow has been reported.

Earthquake Activity

City Distance Mag. Time & Date
No recent earthquake activity has been reported nearby.
Minimum magnitude displayed is 2.5.

Coastal Water Temperatures

Place Temperature
No Stations Reporting

Nearby Weather Stations